SNOW

Not for real navigation. The accuracy of this data is not assured See disclaimer for more information



ICAO NAME COUNTRY WIND Kt GUST Kt VIS m TEMP/DEW C BARO METAR
PAIW Wales AK United States 8 0 1200 0/-1 29.85 PAIW 271324Z AUTO 06008KT 0.75SM -SN BR 00/M01 A2985 RMK AO2 P0000 FZRANO
CYKL Schefferville, Que. Canada 9 18 1600 0/-1 29.89 CYKL 271328Z AUTO 09009G18KT 1 0.25SM -SN BKN011 BKN025 M00/M01 A2989 RMK SLP147
CYYR Goose, Nfld. Canada 12 17 1600 0/-1 30.06 CYYR 271300Z 05012G17KT 1 0.75SM -SN BKN006 OVC011 M00/M01 A3006 RMK SF6SC2 SLP184
PATC Tin City Airways Facilities Se AK United States 12 0 1600 -1/-1 29.81 PATC 271316Z AUTO 02012KT 1 0.5SM -SN BKN002 OVC018 M01/M01 A2981 RMK AO2 SLP099
NZSP Amundsen-Scott South Pole Stat Antarctica 15 0 2400 -52/0 28.72 NZSP 271150Z 04015KT 2400 BLSN FEW010 BKN060 M52/ A2872 RMK CLN AIR 02014G19KT ALL WNDS GRID

Show more